Time;durP1;ratioP1;P1;durP2;ratioP2;P2;SDS_P1;SDS_P2;PMS_P1;PMS_P2;Temp;Humidity;BMP_temperature;BMP_pressure;BME280_temperature;BME280_humidity;BME280_pressure;Samples;Min_cycle;Max_cycle;Signal;HPM_P1;HPM_P2
2021/01/28 00:00:44;;;;;;;9.50;7.93;;;3.30;99.90;;;;;;6204727;23;20182;-82
2021/01/28 00:03:12;;;;;;;8.93;8.15;;;3.30;99.90;;;;;;6204574;23;20189;-82
2021/01/28 00:05:40;;;;;;;10.48;7.80;;;3.30;99.90;;;;;;6204578;23;20217;-82
2021/01/28 00:08:07;;;;;;;8.55;7.78;;;3.20;99.90;;;;;;6204895;23;20238;-82
2021/01/28 00:10:35;;;;;;;8.73;8.02;;;3.30;99.90;;;;;;6204525;23;20188;-82
2021/01/28 00:13:03;;;;;;;8.77;7.15;;;3.30;99.90;;;;;;6204069;23;20193;-81
2021/01/28 00:15:32;;;;;;;8.25;7.35;;;3.30;99.90;;;;;;6203945;23;20258;-81
2021/01/28 00:17:59;;;;;;;6.82;6.07;;;3.30;99.90;;;;;;6202996;23;20185;-81
2021/01/28 00:20:30;;;;;;;10.27;8.05;;;3.40;99.90;;;;;;6203391;23;20182;-83
2021/01/28 00:22:56;;;;;;;8.38;7.60;;;3.30;99.90;;;;;;6202852;23;20730;-81
2021/01/28 00:25:24;;;;;;;7.65;6.72;;;3.30;99.90;;;;;;6202204;23;20201;-82
2021/01/28 00:27:52;;;;;;;9.18;8.18;;;3.30;99.90;;;;;;6203337;23;20182;-81
2021/01/28 00:30:22;;;;;;;9.65;8.05;;;3.30;99.90;;;;;;6202792;23;20183;-82
2021/01/28 00:32:50;;;;;;;9.27;7.35;;;3.30;99.90;;;;;;6203085;23;20218;-83
2021/01/28 00:35:17;;;;;;;9.00;7.50;;;3.30;99.90;;;;;;6202413;23;20207;-81
2021/01/28 00:37:43;;;;;;;7.50;5.95;;;3.30;99.90;;;;;;6202641;23;20179;-81
2021/01/28 00:40:11;;;;;;;8.77;7.70;;;3.20;99.90;;;;;;6202610;23;20179;-81
2021/01/28 00:42:37;;;;;;;8.43;7.60;;;3.20;99.90;;;;;;6202306;23;20189;-83
2021/01/28 00:45:05;;;;;;;8.82;7.57;;;3.20;99.90;;;;;;6202679;23;20202;-82
2021/01/28 00:47:32;;;;;;;9.43;7.05;;;3.20;99.90;;;;;;6201733;23;20674;-82
2021/01/28 00:49:58;;;;;;;7.72;6.53;;;3.20;99.90;;;;;;6201635;23;20179;-81
2021/01/28 00:52:24;;;;;;;7.53;6.80;;;3.30;99.90;;;;;;6200625;23;20193;-81
2021/01/28 00:54:50;;;;;;;10.07;6.78;;;3.20;99.90;;;;;;6199472;23;20215;-79
2021/01/28 00:57:17;;;;;;;7.65;7.03;;;3.30;99.90;;;;;;6195601;23;20175;-79
2021/01/28 00:59:43;;;;;;;13.27;8.90;;;3.40;99.90;;;;;;6199444;23;20252;-79
2021/01/28 01:02:10;;;;;;;8.10;6.15;;;3.30;99.90;;;;;;6199105;23;20183;-81
2021/01/28 01:04:36;;;;;;;9.20;7.95;;;3.40;99.90;;;;;;6200677;23;20183;-80
2021/01/28 01:07:03;;;;;;;9.13;7.93;;;3.40;99.90;;;;;;6201270;23;20201;-79
2021/01/28 01:09:29;;;;;;;9.27;7.38;;;3.40;99.90;;;;;;6202664;23;20229;-80
2021/01/28 01:11:55;;;;;;;6.30;5.65;;;3.40;99.90;;;;;;6202277;23;20193;-81
2021/01/28 01:14:22;;;;;;;9.38;6.20;;;3.60;99.90;;;;;;6203751;23;20191;-81
2021/01/28 01:16:49;;;;;;;7.78;6.53;;;3.60;99.90;;;;;;6204771;23;20218;-79
2021/01/28 01:19:16;;;;;;;6.88;6.22;;;3.50;99.90;;;;;;6205970;23;20183;-80
2021/01/28 01:21:43;;;;;;;6.25;5.65;;;3.60;99.90;;;;;;6204196;23;20185;-82
2021/01/28 01:24:09;;;;;;;7.15;6.25;;;3.60;99.90;;;;;;6199909;23;20193;-82
2021/01/28 01:26:35;;;;;;;8.98;7.07;;;3.70;99.90;;;;;;6200479;23;20200;-82
2021/01/28 01:29:04;;;;;;;5.85;5.32;;;3.70;99.90;;;;;;6201163;23;20182;-81
2021/01/28 01:31:30;;;;;;;7.25;5.70;;;3.70;99.90;;;;;;6200734;23;20283;-82
2021/01/28 01:33:57;;;;;;;10.95;6.65;;;3.70;99.90;;;;;;6201025;23;20184;-83
2021/01/28 01:36:26;;;;;;;6.93;6.18;;;3.70;99.90;;;;;;6200603;23;20199;-82
2021/01/28 01:38:52;;;;;;;7.40;6.70;;;3.60;99.90;;;;;;6200544;23;20185;-82
2021/01/28 01:41:18;;;;;;;8.52;5.65;;;3.60;99.90;;;;;;6201804;23;20193;-82
2021/01/28 01:43:44;;;;;;;8.38;6.80;;;3.70;99.90;;;;;;6201770;23;20179;-82
2021/01/28 01:46:14;;;;;;;6.60;5.95;;;3.70;99.90;;;;;;6201465;23;20196;-82
2021/01/28 01:48:46;;;;;;;8.07;7.28;;;3.70;99.90;;;;;;6202491;23;20187;-82
2021/01/28 01:51:16;;;;;;;8.48;7.70;;;3.70;99.90;;;;;;6202271;23;20163;-83
2021/01/28 01:53:48;;;;;;;6.93;5.47;;;3.70;99.90;;;;;;6201603;23;20176;-82
2021/01/28 01:56:19;;;;;;;6.40;5.80;;;3.70;99.90;;;;;;6202407;23;20194;-82
2021/01/28 01:58:52;;;;;;;6.93;5.70;;;3.60;99.90;;;;;;6201635;23;20166;-82
2021/01/28 02:01:21;;;;;;;6.30;5.47;;;3.60;99.90;;;;;;6201253;23;20176;-82
2021/01/28 02:03:48;;;;;;;6.45;5.72;;;3.70;99.90;;;;;;6201212;23;20185;-82
2021/01/28 02:06:21;;;;;;;5.40;4.82;;;3.70;99.90;;;;;;6201010;23;20203;-82
2021/01/28 02:08:50;;;;;;;6.72;6.13;;;3.70;99.90;;;;;;6202309;23;20310;-82
2021/01/28 02:11:17;;;;;;;6.68;6.03;;;3.60;99.90;;;;;;6201478;23;20186;-83
2021/01/28 02:13:45;;;;;;;6.80;6.20;;;3.60;99.90;;;;;;6201321;23;20186;-82
2021/01/28 02:16:13;;;;;;;7.78;6.82;;;3.60;99.90;;;;;;6200288;23;20201;-82
2021/01/28 02:18:42;;;;;;;5.30;4.80;;;3.60;99.90;;;;;;6201439;23;20619;-82
2021/01/28 02:21:21;;;;;;;6.10;5.40;;;3.50;99.90;;;;;;6201583;23;20188;-81
2021/01/28 02:24:13;;;;;;;6.20;5.07;;;3.50;99.90;;;;;;6201361;23;20170;-82
2021/01/28 02:26:43;;;;;;;7.50;5.85;;;3.50;99.90;;;;;;6196805;23;20207;-83
2021/01/28 02:29:09;;;;;;;6.25;5.05;;;3.50;99.90;;;;;;6201508;23;20178;-83
2021/01/28 02:31:36;;;;;;;5.32;4.93;;;3.60;99.90;;;;;;6201085;23;20228;-81
2021/01/28 02:34:06;;;;;;;4.95;4.53;;;3.60;99.90;;;;;;6201508;23;20183;-82
2021/01/28 02:36:37;;;;;;;6.82;6.22;;;3.60;99.90;;;;;;6201856;23;20209;-82
2021/01/28 02:39:05;;;;;;;5.97;4.32;;;3.60;99.90;;;;;;6201366;23;20167;-82
2021/01/28 02:41:32;;;;;;;4.28;3.88;;;3.60;99.90;;;;;;6201044;23;20189;-83
2021/01/28 02:43:59;;;;;;;6.28;5.22;;;3.60;99.90;;;;;;6200748;23;20180;-82
2021/01/28 02:46:26;;;;;;;4.65;4.00;;;3.70;99.90;;;;;;6202096;23;20214;-83
2021/01/28 02:48:53;;;;;;;3.15;2.88;;;3.60;99.90;;;;;;6201575;23;20184;-82
2021/01/28 02:51:20;;;;;;;4.47;4.05;;;3.60;99.90;;;;;;6201072;23;20239;-83
2021/01/28 02:53:49;;;;;;;5.30;4.40;;;3.60;99.90;;;;;;6200150;23;20181;-82
2021/01/28 02:56:15;;;;;;;5.60;4.18;;;3.60;99.90;;;;;;6200327;23;20228;-82
2021/01/28 02:58:42;;;;;;;4.43;3.78;;;3.60;99.90;;;;;;6200209;23;20555;-83
2021/01/28 03:01:10;;;;;;;5.15;3.72;;;3.60;99.90;;;;;;6200654;23;20228;-82
2021/01/28 03:03:36;;;;;;;4.50;4.10;;;3.60;99.90;;;;;;6206083;23;20178;-82
2021/01/28 03:06:04;;;;;;;3.90;3.50;;;3.60;99.90;;;;;;6210260;23;20198;-82
2021/01/28 03:08:31;;;;;;;4.53;3.75;;;3.70;99.90;;;;;;6210180;23;20198;-80
2021/01/28 03:10:57;;;;;;;6.15;4.07;;;3.70;99.90;;;;;;6211243;23;20231;-82
2021/01/28 03:13:24;;;;;;;4.82;4.43;;;3.70;99.90;;;;;;6210264;23;20212;-82
2021/01/28 03:15:50;;;;;;;5.07;3.55;;;3.80;99.90;;;;;;6210154;23;20263;-81
2021/01/28 03:18:17;;;;;;;3.97;3.67;;;3.80;99.90;;;;;;6210448;23;20189;-81
2021/01/28 03:20:44;;;;;;;4.40;3.60;;;3.80;99.90;;;;;;6210754;23;20247;-83
2021/01/28 03:23:11;;;;;;;3.95;3.65;;;3.80;99.90;;;;;;6209837;23;20217;-82
2021/01/28 03:25:38;;;;;;;5.80;3.88;;;3.80;99.90;;;;;;6209878;23;20207;-83
2021/01/28 03:28:05;;;;;;;4.75;4.35;;;3.80;99.90;;;;;;6201689;23;20179;-83
2021/01/28 03:30:34;;;;;;;3.80;3.38;;;3.80;99.90;;;;;;6200171;23;20189;-83
2021/01/28 03:33:01;;;;;;;6.15;5.40;;;3.90;99.90;;;;;;6200348;23;20187;-83
2021/01/28 03:35:29;;;;;;;4.72;3.95;;;3.90;99.90;;;;;;6201166;23;20213;-83
2021/01/28 03:37:55;;;;;;;6.97;5.65;;;3.90;99.90;;;;;;6201368;23;20179;-83
2021/01/28 03:40:23;;;;;;;7.30;5.82;;;3.90;99.90;;;;;;6200521;23;20185;-84
2021/01/28 03:42:49;;;;;;;5.63;4.05;;;3.90;99.90;;;;;;6200988;23;20179;-82
2021/01/28 03:45:16;;;;;;;6.55;5.03;;;3.90;99.90;;;;;;6200767;23;20202;-83
2021/01/28 03:47:42;;;;;;;5.57;4.30;;;3.90;99.90;;;;;;6200121;23;20229;-83
2021/01/28 03:50:12;;;;;;;4.78;4.32;;;3.90;99.90;;;;;;6200072;23;20185;-83
2021/01/28 03:52:39;;;;;;;4.63;4.22;;;3.90;99.90;;;;;;6199828;23;20183;-83
2021/01/28 03:55:06;;;;;;;5.38;4.93;;;3.90;99.90;;;;;;6199145;23;20209;-84
2021/01/28 03:57:33;;;;;;;3.72;3.38;;;4.00;99.90;;;;;;6198744;23;20241;-84
2021/01/28 03:59:59;;;;;;;4.75;3.70;;;4.00;99.90;;;;;;6200049;23;20184;-83
2021/01/28 04:02:25;;;;;;;5.57;4.63;;;4.10;99.90;;;;;;6199811;23;20180;-82
2021/01/28 04:04:51;;;;;;;5.25;3.72;;;4.10;99.90;;;;;;6201302;23;20214;-83
2021/01/28 04:07:17;;;;;;;5.32;3.95;;;4.20;99.90;;;;;;6201688;23;20221;-83
2021/01/28 04:09:45;;;;;;;3.83;3.53;;;4.20;99.90;;;;;;6201402;23;20189;-83
2021/01/28 04:12:11;;;;;;;6.30;5.38;;;4.20;99.90;;;;;;6200926;23;20185;-83
2021/01/28 04:14:38;;;;;;;6.53;5.95;;;4.30;99.90;;;;;;6202165;23;20203;-84
2021/01/28 04:17:04;;;;;;;6.90;5.22;;;4.20;99.90;;;;;;6201576;23;20229;-83
2021/01/28 04:19:30;;;;;;;5.28;4.82;;;4.20;99.90;;;;;;6201182;23;20185;-83
2021/01/28 04:21:57;;;;;;;7.35;6.00;;;4.20;99.90;;;;;;6201136;23;20194;-83
2021/01/28 04:24:23;;;;;;;7.05;5.60;;;4.20;99.90;;;;;;6201473;23;20188;-84
2021/01/28 04:26:50;;;;;;;5.70;5.03;;;4.20;99.90;;;;;;6202269;23;20264;-84
2021/01/28 04:29:16;;;;;;;6.65;5.95;;;4.20;99.90;;;;;;6201077;23;20191;-83
2021/01/28 04:31:42;;;;;;;8.63;5.85;;;4.30;99.90;;;;;;6201078;23;20649;-83
2021/01/28 04:34:09;;;;;;;6.95;6.25;;;4.30;99.90;;;;;;6200976;23;20177;-83
2021/01/28 04:36:36;;;;;;;7.45;5.72;;;4.20;99.90;;;;;;6201363;23;20264;-83
2021/01/28 04:39:02;;;;;;;6.03;5.30;;;4.20;99.90;;;;;;6201345;23;20187;-83
2021/01/28 04:41:31;;;;;;;6.72;5.70;;;4.20;99.90;;;;;;6200818;23;20191;-84
2021/01/28 04:44:00;;;;;;;7.95;6.47;;;4.20;99.90;;;;;;6200863;23;20250;-83
2021/01/28 04:46:29;;;;;;;8.07;5.50;;;4.20;99.90;;;;;;6201270;23;20204;-83
2021/01/28 04:48:57;;;;;;;6.78;6.03;;;4.10;99.90;;;;;;6200534;23;20179;-84
2021/01/28 04:51:26;;;;;;;7.05;6.03;;;4.10;99.90;;;;;;6199943;23;20194;-84
2021/01/28 04:53:56;;;;;;;6.90;5.55;;;4.10;99.90;;;;;;6200023;23;20186;-84
2021/01/28 04:56:25;;;;;;;6.22;5.47;;;4.10;99.90;;;;;;6200425;23;20195;-83
2021/01/28 04:58:53;;;;;;;6.25;5.65;;;4.10;99.90;;;;;;6200526;23;20234;-83
2021/01/28 05:01:20;;;;;;;5.55;5.05;;;4.10;99.90;;;;;;6200358;23;20186;-83
2021/01/28 05:03:49;;;;;;;6.65;5.75;;;4.20;99.90;;;;;;6200319;23;20184;-83
2021/01/28 05:06:16;;;;;;;6.72;5.60;;;4.10;99.90;;;;;;6199719;23;20208;-83
2021/01/28 05:08:42;;;;;;;7.25;6.20;;;4.10;99.90;;;;;;6199174;23;20232;-83
2021/01/28 05:11:20;;;;;;;7.35;5.60;;;4.10;99.90;;;;;;6200008;23;20187;-83
2021/01/28 05:13:47;;;;;;;5.95;5.38;;;4.10;99.90;;;;;;6199206;23;20195;-83
2021/01/28 05:16:24;;;;;;;6.40;5.70;;;4.20;99.90;;;;;;6199619;23;20474;-83
2021/01/28 05:19:03;;;;;;;8.05;4.93;;;4.20;99.90;;;;;;6200131;23;20220;-83
2021/01/28 05:21:33;;;;;;;7.10;6.38;;;4.20;99.90;;;;;;6199330;23;20163;-83
2021/01/28 05:24:02;;;;;;;6.93;5.72;;;4.20;99.90;;;;;;6199616;23;20163;-83
2021/01/28 05:26:34;;;;;;;5.95;5.38;;;4.20;99.90;;;;;;6198904;23;20666;-83
2021/01/28 05:29:25;;;;;;;5.68;4.25;;;4.30;99.90;;;;;;6198572;23;20173;-83
2021/01/28 05:31:55;;;;;;;6.10;5.55;;;4.30;99.90;;;;;;6199549;23;20168;-83
2021/01/28 05:34:24;;;;;;;6.25;5.22;;;4.40;99.90;;;;;;6199520;23;20261;-83
2021/01/28 05:36:57;;;;;;;5.25;4.80;;;4.40;99.90;;;;;;6199322;23;20199;-83
2021/01/28 05:39:28;;;;;;;6.00;5.50;;;4.50;99.90;;;;;;6198558;23;20167;-83
2021/01/28 05:42:06;;;;;;;8.23;5.53;;;4.50;99.90;;;;;;6198449;23;20185;-83
2021/01/28 05:44:34;;;;;;;10.70;7.32;;;4.50;99.90;;;;;;6199494;23;20168;-83
2021/01/28 05:47:04;;;;;;;5.95;5.30;;;4.50;99.90;;;;;;6199181;23;20217;-83
2021/01/28 05:49:31;;;;;;;7.00;5.57;;;4.60;99.90;;;;;;6186828;23;20245;-82
2021/01/28 05:52:13;;;;;;;9.27;6.60;;;4.60;99.90;;;;;;6187135;23;20184;-82
2021/01/28 05:54:41;;;;;;;7.85;5.25;;;4.50;99.90;;;;;;6186655;23;20167;-82
2021/01/28 05:57:10;;;;;;;7.07;4.80;;;4.60;99.90;;;;;;6187207;23;20178;-82
2021/01/28 05:59:45;;;;;;;8.98;6.38;;;4.60;99.90;;;;;;6186923;23;20187;-81
2021/01/28 06:02:36;;;;;;;7.75;5.60;;;4.60;99.90;;;;;;6186614;23;20168;-82
2021/01/28 06:05:12;;;;;;;10.40;6.13;;;4.50;99.90;;;;;;6186502;23;20203;-81
2021/01/28 06:08:01;;;;;;;6.28;5.38;;;4.50;99.90;;;;;;6186617;23;20194;-82
2021/01/28 06:10:42;;;;;;;7.13;5.40;;;4.50;99.90;;;;;;6186763;23;20193;-81
2021/01/28 06:13:34;;;;;;;14.38;6.88;;;4.50;99.90;;;;;;6186517;23;20181;-82
2021/01/28 06:16:08;;;;;;;9.43;6.35;;;4.40;99.90;;;;;;6186526;23;20195;-82
2021/01/28 06:18:57;;;;;;;9.07;5.70;;;4.40;99.90;;;;;;6187135;23;20174;-82
2021/01/28 06:21:48;;;;;;;13.07;6.18;;;4.40;99.90;;;;;;6186862;23;20561;-81
2021/01/28 06:24:36;;;;;;;7.95;5.70;;;4.40;99.90;;;;;;6187204;23;20164;-82
2021/01/28 06:27:30;;;;;;;4.95;4.30;;;4.40;99.90;;;;;;6186730;23;20187;-82
2021/01/28 06:30:09;;;;;;;4.22;3.60;;;4.40;99.90;;;;;;6187855;23;20183;-82
2021/01/28 06:33:02;;;;;;;9.40;5.38;;;4.30;99.90;;;;;;6187691;23;20164;-81
2021/01/28 06:35:46;;;;;;;4.50;4.10;;;4.30;99.90;;;;;;6187647;23;20205;-81
2021/01/28 06:38:24;;;;;;;7.10;4.85;;;4.30;99.90;;;;;;6187125;23;20166;-81
2021/01/28 06:40:54;;;;;;;5.80;4.15;;;4.20;99.90;;;;;;6186751;23;20163;-81
2021/01/28 06:43:25;;;;;;;9.00;3.88;;;4.20;99.90;;;;;;6186536;23;20167;-81
2021/01/28 06:45:58;;;;;;;5.65;5.20;;;4.20;99.90;;;;;;6186882;23;20241;-81
2021/01/28 06:48:30;;;;;;;4.82;3.90;;;4.20;99.90;;;;;;6186383;23;20163;-80
2021/01/28 06:51:05;;;;;;;3.85;3.00;;;4.30;99.90;;;;;;6187262;23;20219;-81
2021/01/28 06:53:43;;;;;;;4.63;3.88;;;4.30;99.90;;;;;;6185941;23;20621;-81
2021/01/28 06:56:14;;;;;;;6.05;4.38;;;4.30;99.90;;;;;;6186668;23;20210;-81
2021/01/28 06:58:55;;;;;;;7.20;5.70;;;4.40;99.90;;;;;;6186371;23;20167;-81
2021/01/28 07:01:29;;;;;;;5.63;3.63;;;4.40;99.90;;;;;;6186631;23;20222;-81
2021/01/28 07:04:05;;;;;;;4.00;3.63;;;4.40;99.90;;;;;;6186940;23;20164;-80
2021/01/28 07:06:40;;;;;;;4.45;3.25;;;4.40;99.90;;;;;;6190350;23;20203;-84
2021/01/28 07:09:26;;;;;;;4.30;3.70;;;4.40;99.90;;;;;;6188620;23;20222;-81
2021/01/28 07:11:55;;;;;;;6.15;3.95;;;4.40;99.90;;;;;;6185690;23;20175;-81
2021/01/28 07:14:22;;;;;;;3.53;3.22;;;4.40;99.90;;;;;;6187047;23;20533;-82
2021/01/28 07:16:56;;;;;;;4.75;3.65;;;4.40;99.90;;;;;;6186822;23;20729;-82
2021/01/28 07:19:27;;;;;;;3.45;3.17;;;4.40;99.90;;;;;;6187585;23;20184;-82
2021/01/28 07:21:56;;;;;;;3.58;3.28;;;4.40;99.90;;;;;;6186814;23;20161;-82
2021/01/28 07:24:31;;;;;;;5.35;3.83;;;4.40;99.90;;;;;;6187034;23;20184;-83
2021/01/28 07:27:00;;;;;;;2.67;2.40;;;4.40;99.90;;;;;;6187072;23;20197;-83
2021/01/28 07:29:57;;;;;;;8.00;5.32;;;4.40;99.90;;;;;;6187085;23;20181;-83
2021/01/28 07:32:49;;;;;;;4.75;3.90;;;4.40;99.90;;;;;;6186482;23;20174;-82
2021/01/28 07:35:47;;;;;;;5.45;3.78;;;4.40;99.90;;;;;;6186298;23;20204;-83
2021/01/28 07:38:54;;;;;;;3.88;3.58;;;4.50;99.90;;;;;;6187109;23;20498;-83
2021/01/28 07:41:39;;;;;;;6.80;4.43;;;4.50;99.90;;;;;;6187286;23;20165;-83
2021/01/28 07:44:49;;;;;;;5.22;3.55;;;4.50;99.90;;;;;;6187805;23;20222;-82
2021/01/28 07:47:46;;;;;;;4.53;4.13;;;4.50;99.90;;;;;;6187225;23;20644;-83
2021/01/28 07:50:38;;;;;;;3.92;2.85;;;4.50;99.90;;;;;;6188719;23;20180;-83
2021/01/28 07:53:38;;;;;;;3.63;3.33;;;4.60;99.90;;;;;;6182250;23;20178;-83
2021/01/28 07:56:28;;;;;;;6.55;4.00;;;4.60;99.90;;;;;;6123850;23;20206;-83
2021/01/28 07:58:54;;;;;;;5.93;2.83;;;4.70;99.90;;;;;;6188557;23;20499;-82
2021/01/28 08:01:21;;;;;;;6.95;3.63;;;4.70;99.90;;;;;;6192910;23;20517;-83
2021/01/28 08:04:02;;;;;;;3.35;3.05;;;4.70;99.90;;;;;;6190538;23;20177;-83
2021/01/28 08:06:29;;;;;;;3.03;2.72;;;4.80;99.90;;;;;;6186357;23;20666;-83
2021/01/28 08:09:06;;;;;;;3.17;2.40;;;4.80;99.90;;;;;;6186498;23;20185;-84
2021/01/28 08:11:34;;;;;;;5.00;3.33;;;4.80;99.90;;;;;;6188659;23;20497;-84
2021/01/28 08:14:26;;;;;;;1.90;1.80;;;4.80;99.90;;;;;;6187977;23;20675;-84
2021/01/28 08:16:56;;;;;;;3.40;2.88;;;4.80;99.90;;;;;;6187680;23;20203;-84
2021/01/28 08:19:24;;;;;;;3.70;2.30;;;4.80;99.90;;;;;;6188597;23;20176;-85
2021/01/28 08:22:04;;;;;;;2.33;1.83;;;4.80;99.90;;;;;;6187945;23;20184;-83
2021/01/28 08:24:39;;;;;;;2.55;2.35;;;4.80;99.90;;;;;;6187417;23;20543;-85
2021/01/28 08:27:15;;;;;;;2.10;2.00;;;4.90;99.90;;;;;;6188100;23;20204;-87
2021/01/28 08:29:45;;;;;;;2.50;2.30;;;4.90;99.90;;;;;;6186181;23;20622;-87
2021/01/28 08:32:22;;;;;;;2.45;1.98;;;5.00;99.90;;;;;;6186974;23;20194;-85
2021/01/28 08:35:05;;;;;;;2.95;2.75;;;5.00;99.90;;;;;;6193934;23;20302;-85
2021/01/28 08:38:37;;;;;;;2.10;1.95;;;5.00;99.90;;;;;;6192831;23;20220;-85
2021/01/28 08:41:43;;;;;;;1.60;1.50;;;5.10;99.90;;;;;;6039820;23;20188;-89
2021/01/28 08:44:30;;;;;;;2.53;1.90;;;5.10;99.90;;;;;;5969246;23;20665;-86
2021/01/28 08:47:18;;;;;;;1.60;1.35;;;5.10;99.90;;;;;;6187057;23;20204;-87
2021/01/28 08:50:29;;;;;;;4.07;2.75;;;5.10;99.90;;;;;;6187081;23;20626;-88
2021/01/28 09:22:51;;;;;;;2.25;2.10;;;5.40;99.90;;;;;;6170355;23;20192;-84
